sensor_id;sensor_type;location;lat;lon;timestamp;P1;durP1;ratioP1;P2;durP2;ratioP2
23416;SDS011;11881;42.432;25.632;2023-12-22T00:02:23;14.07;;;8.13;;
23416;SDS011;11881;42.432;25.632;2023-12-22T00:04:50;14.67;;;9.43;;
23416;SDS011;11881;42.432;25.632;2023-12-22T00:07:16;15.70;;;8.80;;
23416;SDS011;11881;42.432;25.632;2023-12-22T00:09:42;18.77;;;8.70;;
23416;SDS011;11881;42.432;25.632;2023-12-22T00:12:07;16.60;;;9.20;;
23416;SDS011;11881;42.432;25.632;2023-12-22T00:14:33;13.23;;;9.13;;
23416;SDS011;11881;42.432;25.632;2023-12-22T00:16:58;15.40;;;8.90;;
23416;SDS011;11881;42.432;25.632;2023-12-22T00:19:24;21.50;;;11.30;;
23416;SDS011;11881;42.432;25.632;2023-12-22T00:21:49;16.53;;;9.43;;
23416;SDS011;11881;42.432;25.632;2023-12-22T00:24:15;19.53;;;9.73;;
23416;SDS011;11881;42.432;25.632;2023-12-22T00:26:40;18.53;;;10.77;;
23416;SDS011;11881;42.432;25.632;2023-12-22T00:29:06;15.17;;;9.53;;
23416;SDS011;11881;42.432;25.632;2023-12-22T00:31:31;16.37;;;9.00;;
23416;SDS011;11881;42.432;25.632;2023-12-22T00:33:57;15.67;;;9.07;;
23416;SDS011;11881;42.432;25.632;2023-12-22T00:36:22;17.30;;;9.90;;
23416;SDS011;11881;42.432;25.632;2023-12-22T00:38:49;16.90;;;9.20;;
23416;SDS011;11881;42.432;25.632;2023-12-22T00:41:15;18.20;;;9.67;;
23416;SDS011;11881;42.432;25.632;2023-12-22T00:43:40;16.33;;;10.10;;
23416;SDS011;11881;42.432;25.632;2023-12-22T00:46:06;16.23;;;9.63;;
23416;SDS011;11881;42.432;25.632;2023-12-22T00:48:31;18.33;;;10.00;;
23416;SDS011;11881;42.432;25.632;2023-12-22T00:50:57;17.80;;;9.83;;
23416;SDS011;11881;42.432;25.632;2023-12-22T00:53:22;16.73;;;10.00;;
23416;SDS011;11881;42.432;25.632;2023-12-22T00:55:48;18.80;;;10.00;;
23416;SDS011;11881;42.432;25.632;2023-12-22T00:58:13;20.00;;;9.77;;
23416;SDS011;11881;42.432;25.632;2023-12-22T01:00:39;16.87;;;9.67;;
23416;SDS011;11881;42.432;25.632;2023-12-22T01:03:04;17.70;;;9.90;;
23416;SDS011;11881;42.432;25.632;2023-12-22T01:05:29;16.73;;;9.80;;
23416;SDS011;11881;42.432;25.632;2023-12-22T01:07:55;14.90;;;9.27;;
23416;SDS011;11881;42.432;25.632;2023-12-22T01:10:20;14.67;;;9.60;;
23416;SDS011;11881;42.432;25.632;2023-12-22T01:12:46;15.37;;;9.40;;
23416;SDS011;11881;42.432;25.632;2023-12-22T01:15:11;15.03;;;9.17;;
23416;SDS011;11881;42.432;25.632;2023-12-22T01:17:37;15.70;;;9.83;;
23416;SDS011;11881;42.432;25.632;2023-12-22T01:20:03;13.97;;;9.63;;
23416;SDS011;11881;42.432;25.632;2023-12-22T01:22:29;16.67;;;9.90;;
23416;SDS011;11881;42.432;25.632;2023-12-22T01:24:56;18.73;;;10.23;;
23416;SDS011;11881;42.432;25.632;2023-12-22T01:27:21;17.20;;;10.03;;
23416;SDS011;11881;42.432;25.632;2023-12-22T01:29:47;18.03;;;9.77;;
23416;SDS011;11881;42.432;25.632;2023-12-22T01:32:12;17.50;;;10.53;;
23416;SDS011;11881;42.432;25.632;2023-12-22T01:34:37;15.93;;;9.67;;
23416;SDS011;11881;42.432;25.632;2023-12-22T01:37:03;15.37;;;9.73;;
23416;SDS011;11881;42.432;25.632;2023-12-22T01:39:28;17.57;;;9.53;;
23416;SDS011;11881;42.432;25.632;2023-12-22T01:41:54;20.43;;;10.40;;
23416;SDS011;11881;42.432;25.632;2023-12-22T01:44:19;18.13;;;10.40;;
23416;SDS011;11881;42.432;25.632;2023-12-22T01:46:45;18.33;;;10.60;;
23416;SDS011;11881;42.432;25.632;2023-12-22T01:49:10;17.77;;;10.90;;
23416;SDS011;11881;42.432;25.632;2023-12-22T01:51:37;19.23;;;10.77;;
23416;SDS011;11881;42.432;25.632;2023-12-22T01:54:07;16.43;;;9.83;;
23416;SDS011;11881;42.432;25.632;2023-12-22T01:56:34;17.13;;;10.17;;
23416;SDS011;11881;42.432;25.632;2023-12-22T01:59:00;15.50;;;9.57;;
23416;SDS011;11881;42.432;25.632;2023-12-22T02:01:29;17.73;;;10.17;;
23416;SDS011;11881;42.432;25.632;2023-12-22T02:03:56;17.97;;;10.73;;
23416;SDS011;11881;42.432;25.632;2023-12-22T02:06:24;18.47;;;10.93;;
23416;SDS011;11881;42.432;25.632;2023-12-22T02:08:49;17.47;;;11.03;;
23416;SDS011;11881;42.432;25.632;2023-12-22T02:11:15;17.17;;;10.40;;
23416;SDS011;11881;42.432;25.632;2023-12-22T02:13:44;17.93;;;10.53;;
23416;SDS011;11881;42.432;25.632;2023-12-22T02:18:55;18.70;;;10.27;;
23416;SDS011;11881;42.432;25.632;2023-12-22T02:21:22;17.37;;;9.77;;
23416;SDS011;11881;42.432;25.632;2023-12-22T02:23:48;17.13;;;8.60;;
23416;SDS011;11881;42.432;25.632;2023-12-22T02:26:33;17.40;;;9.13;;
23416;SDS011;11881;42.432;25.632;2023-12-22T02:29:03;13.30;;;9.17;;
23416;SDS011;11881;42.432;25.632;2023-12-22T02:34:04;13.97;;;8.47;;
23416;SDS011;11881;42.432;25.632;2023-12-22T02:36:33;13.67;;;8.47;;
23416;SDS011;11881;42.432;25.632;2023-12-22T02:39:02;15.90;;;9.50;;
23416;SDS011;11881;42.432;25.632;2023-12-22T02:41:30;14.97;;;8.97;;
23416;SDS011;11881;42.432;25.632;2023-12-22T02:43:56;12.90;;;8.83;;
23416;SDS011;11881;42.432;25.632;2023-12-22T02:46:22;13.10;;;8.50;;
23416;SDS011;11881;42.432;25.632;2023-12-22T02:48:48;14.03;;;8.70;;
23416;SDS011;11881;42.432;25.632;2023-12-22T02:51:13;13.93;;;8.70;;
23416;SDS011;11881;42.432;25.632;2023-12-22T02:53:38;16.93;;;9.37;;
23416;SDS011;11881;42.432;25.632;2023-12-22T02:56:04;16.13;;;8.70;;
23416;SDS011;11881;42.432;25.632;2023-12-22T02:58:30;15.20;;;9.37;;
23416;SDS011;11881;42.432;25.632;2023-12-22T03:00:55;14.33;;;8.67;;
23416;SDS011;11881;42.432;25.632;2023-12-22T03:03:21;14.20;;;9.17;;
23416;SDS011;11881;42.432;25.632;2023-12-22T03:05:46;16.07;;;8.93;;
23416;SDS011;11881;42.432;25.632;2023-12-22T03:08:12;16.43;;;9.70;;
23416;SDS011;11881;42.432;25.632;2023-12-22T03:10:37;15.73;;;9.27;;
23416;SDS011;11881;42.432;25.632;2023-12-22T03:13:03;15.50;;;9.13;;
23416;SDS011;11881;42.432;25.632;2023-12-22T03:15:28;18.27;;;10.70;;
23416;SDS011;11881;42.432;25.632;2023-12-22T03:17:54;23.83;;;14.13;;
23416;SDS011;11881;42.432;25.632;2023-12-22T03:20:19;25.57;;;14.00;;
23416;SDS011;11881;42.432;25.632;2023-12-22T03:22:45;25.40;;;15.60;;
23416;SDS011;11881;42.432;25.632;2023-12-22T03:25:10;22.73;;;14.77;;
23416;SDS011;11881;42.432;25.632;2023-12-22T03:27:36;28.70;;;18.07;;
23416;SDS011;11881;42.432;25.632;2023-12-22T03:30:01;27.40;;;14.77;;
23416;SDS011;11881;42.432;25.632;2023-12-22T03:32:27;22.80;;;12.93;;
23416;SDS011;11881;42.432;25.632;2023-12-22T03:34:52;27.80;;;14.73;;
23416;SDS011;11881;42.432;25.632;2023-12-22T03:37:18;26.27;;;14.70;;
23416;SDS011;11881;42.432;25.632;2023-12-22T03:39:43;25.93;;;15.47;;
23416;SDS011;11881;42.432;25.632;2023-12-22T03:42:09;29.73;;;15.00;;
23416;SDS011;11881;42.432;25.632;2023-12-22T03:44:34;25.10;;;15.13;;
23416;SDS011;11881;42.432;25.632;2023-12-22T03:47:00;21.73;;;13.83;;
23416;SDS011;11881;42.432;25.632;2023-12-22T03:49:25;22.27;;;13.73;;
23416;SDS011;11881;42.432;25.632;2023-12-22T03:51:51;23.53;;;14.10;;
23416;SDS011;11881;42.432;25.632;2023-12-22T03:54:16;22.83;;;14.53;;
23416;SDS011;11881;42.432;25.632;2023-12-22T03:56:42;26.17;;;14.90;;
23416;SDS011;11881;42.432;25.632;2023-12-22T03:59:08;26.23;;;15.03;;
23416;SDS011;11881;42.432;25.632;2023-12-22T04:01:33;23.90;;;14.93;;
23416;SDS011;11881;42.432;25.632;2023-12-22T04:03:59;23.97;;;15.13;;
23416;SDS011;11881;42.432;25.632;2023-12-22T04:06:24;24.60;;;14.20;;
23416;SDS011;11881;42.432;25.632;2023-12-22T04:08:50;21.40;;;13.03;;
23416;SDS011;11881;42.432;25.632;2023-12-22T04:11:15;20.80;;;11.57;;
23416;SDS011;11881;42.432;25.632;2023-12-22T04:13:41;18.67;;;11.87;;
23416;SDS011;11881;42.432;25.632;2023-12-22T04:16:07;15.50;;;10.60;;
23416;SDS011;11881;42.432;25.632;2023-12-22T04:18:32;19.20;;;11.73;;
23416;SDS011;11881;42.432;25.632;2023-12-22T04:20:58;19.77;;;11.87;;
23416;SDS011;11881;42.432;25.632;2023-12-22T04:23:23;18.07;;;11.37;;
23416;SDS011;11881;42.432;25.632;2023-12-22T04:25:49;19.17;;;11.53;;
23416;SDS011;11881;42.432;25.632;2023-12-22T04:28:15;17.20;;;10.47;;
23416;SDS011;11881;42.432;25.632;2023-12-22T04:30:41;21.20;;;11.53;;
23416;SDS011;11881;42.432;25.632;2023-12-22T04:33:06;23.10;;;12.70;;
23416;SDS011;11881;42.432;25.632;2023-12-22T04:35:32;19.57;;;11.30;;
23416;SDS011;11881;42.432;25.632;2023-12-22T04:37:57;18.33;;;11.80;;
23416;SDS011;11881;42.432;25.632;2023-12-22T04:40:23;20.50;;;11.10;;
23416;SDS011;11881;42.432;25.632;2023-12-22T04:42:48;20.23;;;11.27;;
23416;SDS011;11881;42.432;25.632;2023-12-22T04:45:14;23.33;;;12.33;;
23416;SDS011;11881;42.432;25.632;2023-12-22T04:47:42;20.33;;;12.47;;
23416;SDS011;11881;42.432;25.632;2023-12-22T04:50:07;18.80;;;11.90;;
23416;SDS011;11881;42.432;25.632;2023-12-22T04:52:33;22.33;;;12.97;;
23416;SDS011;11881;42.432;25.632;2023-12-22T04:54:58;19.97;;;13.03;;
23416;SDS011;11881;42.432;25.632;2023-12-22T04:57:24;20.17;;;12.93;;
23416;SDS011;11881;42.432;25.632;2023-12-22T04:59:49;21.47;;;13.50;;
23416;SDS011;11881;42.432;25.632;2023-12-22T05:02:15;24.27;;;14.00;;
23416;SDS011;11881;42.432;25.632;2023-12-22T05:04:40;22.17;;;13.90;;
23416;SDS011;11881;42.432;25.632;2023-12-22T05:07:06;20.20;;;13.43;;
23416;SDS011;11881;42.432;25.632;2023-12-22T05:09:32;22.70;;;13.13;;
23416;SDS011;11881;42.432;25.632;2023-12-22T05:11:58;17.33;;;11.90;;
23416;SDS011;11881;42.432;25.632;2023-12-22T05:14:24;20.90;;;11.83;;
23416;SDS011;11881;42.432;25.632;2023-12-22T05:16:49;17.27;;;12.00;;
23416;SDS011;11881;42.432;25.632;2023-12-22T05:19:20;19.40;;;12.37;;
23416;SDS011;11881;42.432;25.632;2023-12-22T05:21:45;20.30;;;12.53;;
23416;SDS011;11881;42.432;25.632;2023-12-22T05:24:11;20.63;;;12.67;;
23416;SDS011;11881;42.432;25.632;2023-12-22T05:26:36;22.03;;;12.87;;
23416;SDS011;11881;42.432;25.632;2023-12-22T05:29:02;21.03;;;12.93;;
23416;SDS011;11881;42.432;25.632;2023-12-22T05:31:27;21.13;;;12.77;;
23416;SDS011;11881;42.432;25.632;2023-12-22T05:33:53;17.53;;;12.00;;
23416;SDS011;11881;42.432;25.632;2023-12-22T05:36:18;22.37;;;13.53;;
23416;SDS011;11881;42.432;25.632;2023-12-22T05:38:44;21.37;;;13.23;;
23416;SDS011;11881;42.432;25.632;2023-12-22T05:41:09;22.17;;;12.13;;
23416;SDS011;11881;42.432;25.632;2023-12-22T05:43:35;19.40;;;12.50;;
23416;SDS011;11881;42.432;25.632;2023-12-22T05:46:00;18.57;;;12.17;;
23416;SDS011;11881;42.432;25.632;2023-12-22T05:48:26;18.13;;;12.20;;
23416;SDS011;11881;42.432;25.632;2023-12-22T05:50:53;21.47;;;12.50;;
23416;SDS011;11881;42.432;25.632;2023-12-22T05:53:22;20.50;;;12.37;;
23416;SDS011;11881;42.432;25.632;2023-12-22T05:55:47;21.40;;;13.03;;
23416;SDS011;11881;42.432;25.632;2023-12-22T05:58:13;25.03;;;12.77;;
23416;SDS011;11881;42.432;25.632;2023-12-22T06:00:39;21.03;;;12.97;;
23416;SDS011;11881;42.432;25.632;2023-12-22T06:03:04;22.17;;;12.73;;
23416;SDS011;11881;42.432;25.632;2023-12-22T06:05:30;21.47;;;13.17;;
23416;SDS011;11881;42.432;25.632;2023-12-22T06:07:56;25.67;;;13.70;;
23416;SDS011;11881;42.432;25.632;2023-12-22T06:10:21;24.17;;;13.80;;
23416;SDS011;11881;42.432;25.632;2023-12-22T06:12:47;22.10;;;14.43;;
23416;SDS011;11881;42.432;25.632;2023-12-22T06:15:12;27.33;;;14.40;;
23416;SDS011;11881;42.432;25.632;2023-12-22T06:17:38;28.33;;;16.20;;
23416;SDS011;11881;42.432;25.632;2023-12-22T06:20:04;29.53;;;16.33;;
23416;SDS011;11881;42.432;25.632;2023-12-22T06:22:29;31.33;;;16.97;;
23416;SDS011;11881;42.432;25.632;2023-12-22T06:24:55;31.70;;;16.60;;
23416;SDS011;11881;42.432;25.632;2023-12-22T06:27:20;43.20;;;19.87;;
23416;SDS011;11881;42.432;25.632;2023-12-22T06:29:46;41.30;;;22.13;;
23416;SDS011;11881;42.432;25.632;2023-12-22T06:32:11;52.53;;;21.40;;
23416;SDS011;11881;42.432;25.632;2023-12-22T06:34:37;45.23;;;18.63;;
23416;SDS011;11881;42.432;25.632;2023-12-22T06:37:02;35.13;;;18.30;;
23416;SDS011;11881;42.432;25.632;2023-12-22T06:39:28;35.00;;;17.37;;
23416;SDS011;11881;42.432;25.632;2023-12-22T06:41:54;38.03;;;19.10;;
23416;SDS011;11881;42.432;25.632;2023-12-22T06:44:19;35.07;;;18.17;;
23416;SDS011;11881;42.432;25.632;2023-12-22T06:46:45;32.60;;;16.93;;
23416;SDS011;11881;42.432;25.632;2023-12-22T06:49:10;36.17;;;17.77;;
23416;SDS011;11881;42.432;25.632;2023-12-22T06:51:36;29.23;;;16.43;;
23416;SDS011;11881;42.432;25.632;2023-12-22T06:54:02;43.40;;;19.97;;
23416;SDS011;11881;42.432;25.632;2023-12-22T06:56:30;60.10;;;22.57;;
23416;SDS011;11881;42.432;25.632;2023-12-22T06:58:57;50.23;;;21.00;;
23416;SDS011;11881;42.432;25.632;2023-12-22T07:01:33;39.93;;;20.80;;
23416;SDS011;11881;42.432;25.632;2023-12-22T07:04:00;44.63;;;20.77;;
23416;SDS011;11881;42.432;25.632;2023-12-22T07:06:32;49.60;;;21.50;;
23416;SDS011;11881;42.432;25.632;2023-12-22T07:14:24;41.07;;;21.97;;
23416;SDS011;11881;42.432;25.632;2023-12-22T07:16:50;32.93;;;17.37;;
23416;SDS011;11881;42.432;25.632;2023-12-22T07:19:16;37.73;;;16.53;;
23416;SDS011;11881;42.432;25.632;2023-12-22T07:21:41;33.10;;;15.40;;
23416;SDS011;11881;42.432;25.632;2023-12-22T07:24:07;26.93;;;14.97;;
23416;SDS011;11881;42.432;25.632;2023-12-22T07:26:32;28.10;;;14.83;;
23416;SDS011;11881;42.432;25.632;2023-12-22T07:28:58;32.03;;;16.13;;
23416;SDS011;11881;42.432;25.632;2023-12-22T07:31:24;28.90;;;14.77;;
23416;SDS011;11881;42.432;25.632;2023-12-22T07:33:50;27.60;;;14.73;;
23416;SDS011;11881;42.432;25.632;2023-12-22T07:36:16;23.20;;;13.33;;
23416;SDS011;11881;42.432;25.632;2023-12-22T07:38:43;31.53;;;15.40;;
23416;SDS011;11881;42.432;25.632;2023-12-22T07:41:09;34.10;;;16.43;;
23416;SDS011;11881;42.432;25.632;2023-12-22T07:43:35;32.70;;;16.67;;
23416;SDS011;11881;42.432;25.632;2023-12-22T07:46:00;31.93;;;16.30;;
23416;SDS011;11881;42.432;25.632;2023-12-22T07:48:26;50.70;;;28.00;;
23416;SDS011;11881;42.432;25.632;2023-12-22T07:50:51;52.97;;;23.00;;
23416;SDS011;11881;42.432;25.632;2023-12-22T07:53:17;48.50;;;24.47;;
23416;SDS011;11881;42.432;25.632;2023-12-22T07:55:43;56.63;;;28.07;;
23416;SDS011;11881;42.432;25.632;2023-12-22T07:58:09;63.33;;;29.17;;
23416;SDS011;11881;42.432;25.632;2023-12-22T08:00:35;58.87;;;31.73;;
23416;SDS011;11881;42.432;25.632;2023-12-22T08:03:01;57.30;;;33.03;;
23416;SDS011;11881;42.432;25.632;2023-12-22T08:05:27;80.20;;;40.40;;
23416;SDS011;11881;42.432;25.632;2023-12-22T08:07:52;81.27;;;47.67;;
23416;SDS011;11881;42.432;25.632;2023-12-22T08:10:18;93.43;;;56.63;;
23416;SDS011;11881;42.432;25.632;2023-12-22T08:12:44;96.60;;;54.67;;
23416;SDS011;11881;42.432;25.632;2023-12-22T08:15:10;87.37;;;47.43;;
23416;SDS011;11881;42.432;25.632;2023-12-22T08:17:35;97.67;;;47.93;;
23416;SDS011;11881;42.432;25.632;2023-12-22T08:20:02;78.07;;;44.73;;
23416;SDS011;11881;42.432;25.632;2023-12-22T08:22:28;77.80;;;40.33;;
23416;SDS011;11881;42.432;25.632;2023-12-22T08:24:53;69.87;;;38.77;;
23416;SDS011;11881;42.432;25.632;2023-12-22T08:27:19;65.50;;;38.33;;
23416;SDS011;11881;42.432;25.632;2023-12-22T08:29:44;72.30;;;37.13;;
23416;SDS011;11881;42.432;25.632;2023-12-22T08:32:10;67.40;;;37.47;;
23416;SDS011;11881;42.432;25.632;2023-12-22T08:34:36;75.10;;;39.03;;
23416;SDS011;11881;42.432;25.632;2023-12-22T08:37:01;78.43;;;40.50;;
23416;SDS011;11881;42.432;25.632;2023-12-22T08:39:27;82.97;;;43.83;;
23416;SDS011;11881;42.432;25.632;2023-12-22T08:41:52;96.90;;;43.70;;
23416;SDS011;11881;42.432;25.632;2023-12-22T08:44:18;83.07;;;43.27;;
23416;SDS011;11881;42.432;25.632;2023-12-22T08:46:44;82.37;;;42.20;;
23416;SDS011;11881;42.432;25.632;2023-12-22T08:49:09;77.80;;;40.07;;
23416;SDS011;11881;42.432;25.632;2023-12-22T08:51:35;79.03;;;40.67;;
23416;SDS011;11881;42.432;25.632;2023-12-22T08:54:00;87.70;;;42.50;;
23416;SDS011;11881;42.432;25.632;2023-12-22T08:56:26;87.13;;;41.27;;
23416;SDS011;11881;42.432;25.632;2023-12-22T08:58:52;80.60;;;41.00;;
23416;SDS011;11881;42.432;25.632;2023-12-22T09:01:20;71.50;;;39.83;;
23416;SDS011;11881;42.432;25.632;2023-12-22T09:03:47;79.30;;;40.93;;
23416;SDS011;11881;42.432;25.632;2023-12-22T09:06:22;89.37;;;44.43;;
23416;SDS011;11881;42.432;25.632;2023-12-22T09:08:49;88.33;;;45.87;;
23416;SDS011;11881;42.432;25.632;2023-12-22T09:11:16;91.57;;;47.40;;
23416;SDS011;11881;42.432;25.632;2023-12-22T09:13:43;102.57;;;49.13;;
23416;SDS011;11881;42.432;25.632;2023-12-22T09:16:09;100.07;;;49.43;;
23416;SDS011;11881;42.432;25.632;2023-12-22T09:18:35;91.97;;;48.53;;
23416;SDS011;11881;42.432;25.632;2023-12-22T09:21:01;84.30;;;48.27;;
23416;SDS011;11881;42.432;25.632;2023-12-22T09:23:28;90.77;;;48.43;;
23416;SDS011;11881;42.432;25.632;2023-12-22T09:25:54;91.03;;;47.83;;
23416;SDS011;11881;42.432;25.632;2023-12-22T09:28:19;87.53;;;47.60;;
23416;SDS011;11881;42.432;25.632;2023-12-22T09:30:45;86.63;;;45.23;;
23416;SDS011;11881;42.432;25.632;2023-12-22T09:33:10;85.90;;;44.20;;
23416;SDS011;11881;42.432;25.632;2023-12-22T09:35:36;83.13;;;44.67;;
23416;SDS011;11881;42.432;25.632;2023-12-22T09:38:02;73.63;;;43.50;;
23416;SDS011;11881;42.432;25.632;2023-12-22T09:40:28;81.43;;;41.73;;
23416;SDS011;11881;42.432;25.632;2023-12-22T09:42:54;73.93;;;40.47;;
23416;SDS011;11881;42.432;25.632;2023-12-22T09:45:21;78.67;;;40.67;;
23416;SDS011;11881;42.432;25.632;2023-12-22T09:47:47;84.07;;;40.80;;
23416;SDS011;11881;42.432;25.632;2023-12-22T09:50:14;75.10;;;38.83;;
23416;SDS011;11881;42.432;25.632;2023-12-22T09:52:43;76.93;;;38.20;;
23416;SDS011;11881;42.432;25.632;2023-12-22T09:55:10;80.97;;;37.53;;
23416;SDS011;11881;42.432;25.632;2023-12-22T09:57:38;72.17;;;37.67;;
23416;SDS011;11881;42.432;25.632;2023-12-22T10:00:10;77.20;;;37.50;;
23416;SDS011;11881;42.432;25.632;2023-12-22T10:02:37;75.10;;;36.63;;
23416;SDS011;11881;42.432;25.632;2023-12-22T10:05:04;81.33;;;38.67;;
23416;SDS011;11881;42.432;25.632;2023-12-22T10:07:30;77.13;;;38.60;;
23416;SDS011;11881;42.432;25.632;2023-12-22T10:09:56;75.83;;;34.77;;
23416;SDS011;11881;42.432;25.632;2023-12-22T10:12:22;67.60;;;32.13;;
23416;SDS011;11881;42.432;25.632;2023-12-22T10:14:50;66.13;;;32.53;;
23416;SDS011;11881;42.432;25.632;2023-12-22T10:17:17;56.30;;;29.93;;
23416;SDS011;11881;42.432;25.632;2023-12-22T10:19:43;50.83;;;27.60;;
23416;SDS011;11881;42.432;25.632;2023-12-22T10:22:08;59.87;;;29.03;;
23416;SDS011;11881;42.432;25.632;2023-12-22T10:24:37;53.07;;;26.97;;
23416;SDS011;11881;42.432;25.632;2023-12-22T10:27:12;55.50;;;26.43;;
23416;SDS011;11881;42.432;25.632;2023-12-22T10:29:39;50.90;;;28.70;;
23416;SDS011;11881;42.432;25.632;2023-12-22T10:32:06;53.20;;;26.73;;
23416;SDS011;11881;42.432;25.632;2023-12-22T10:34:32;49.20;;;24.47;;
23416;SDS011;11881;42.432;25.632;2023-12-22T10:36:59;43.90;;;24.23;;
23416;SDS011;11881;42.432;25.632;2023-12-22T10:39:31;49.47;;;23.57;;
23416;SDS011;11881;42.432;25.632;2023-12-22T10:41:58;47.87;;;22.60;;
23416;SDS011;11881;42.432;25.632;2023-12-22T10:44:27;52.73;;;27.43;;
23416;SDS011;11881;42.432;25.632;2023-12-22T10:46:54;51.83;;;26.87;;
23416;SDS011;11881;42.432;25.632;2023-12-22T10:49:21;49.07;;;25.10;;
23416;SDS011;11881;42.432;25.632;2023-12-22T10:51:47;50.83;;;23.97;;
23416;SDS011;11881;42.432;25.632;2023-12-22T10:54:13;40.50;;;22.23;;
23416;SDS011;11881;42.432;25.632;2023-12-22T10:56:39;44.43;;;22.33;;
23416;SDS011;11881;42.432;25.632;2023-12-22T10:59:04;54.00;;;22.87;;
23416;SDS011;11881;42.432;25.632;2023-12-22T11:01:31;40.17;;;21.67;;
23416;SDS011;11881;42.432;25.632;2023-12-22T11:04:03;47.30;;;21.67;;
23416;SDS011;11881;42.432;25.632;2023-12-22T11:06:36;44.87;;;23.13;;
23416;SDS011;11881;42.432;25.632;2023-12-22T11:09:11;42.43;;;21.90;;
23416;SDS011;11881;42.432;25.632;2023-12-22T11:11:39;46.87;;;21.97;;
23416;SDS011;11881;42.432;25.632;2023-12-22T11:14:05;45.30;;;21.03;;
23416;SDS011;11881;42.432;25.632;2023-12-22T11:16:32;39.73;;;19.87;;
23416;SDS011;11881;42.432;25.632;2023-12-22T11:18:59;36.80;;;20.60;;
23416;SDS011;11881;42.432;25.632;2023-12-22T11:21:25;39.07;;;20.87;;
23416;SDS011;11881;42.432;25.632;2023-12-22T11:23:52;29.60;;;17.40;;
23416;SDS011;11881;42.432;25.632;2023-12-22T11:26:19;30.37;;;17.40;;
23416;SDS011;11881;42.432;25.632;2023-12-22T11:28:46;34.13;;;18.13;;
23416;SDS011;11881;42.432;25.632;2023-12-22T11:31:13;35.70;;;20.03;;
23416;SDS011;11881;42.432;25.632;2023-12-22T11:33:46;45.07;;;20.60;;
23416;SDS011;11881;42.432;25.632;2023-12-22T11:36:13;42.87;;;21.47;;
23416;SDS011;11881;42.432;25.632;2023-12-22T11:38:40;42.47;;;21.67;;
23416;SDS011;11881;42.432;25.632;2023-12-22T11:41:08;48.87;;;22.97;;
23416;SDS011;11881;42.432;25.632;2023-12-22T11:43:36;47.70;;;22.37;;
23416;SDS011;11881;42.432;25.632;2023-12-22T11:46:03;43.53;;;23.33;;
23416;SDS011;11881;42.432;25.632;2023-12-22T11:48:30;39.97;;;22.10;;
23416;SDS011;11881;42.432;25.632;2023-12-22T11:50:55;45.40;;;22.47;;
23416;SDS011;11881;42.432;25.632;2023-12-22T11:53:23;52.93;;;23.03;;
23416;SDS011;11881;42.432;25.632;2023-12-22T11:56:00;47.73;;;24.03;;
23416;SDS011;11881;42.432;25.632;2023-12-22T11:58:39;45.40;;;23.80;;
23416;SDS011;11881;42.432;25.632;2023-12-22T12:01:06;51.37;;;24.67;;
23416;SDS011;11881;42.432;25.632;2023-12-22T12:03:42;51.33;;;25.77;;
23416;SDS011;11881;42.432;25.632;2023-12-22T12:08:54;43.40;;;25.87;;
23416;SDS011;11881;42.432;25.632;2023-12-22T12:11:21;46.13;;;23.57;;
23416;SDS011;11881;42.432;25.632;2023-12-22T12:13:47;38.63;;;22.23;;
23416;SDS011;11881;42.432;25.632;2023-12-22T12:16:14;38.97;;;22.47;;
23416;SDS011;11881;42.432;25.632;2023-12-22T12:18:44;39.77;;;22.03;;
23416;SDS011;11881;42.432;25.632;2023-12-22T12:21:10;36.63;;;22.90;;
23416;SDS011;11881;42.432;25.632;2023-12-22T12:23:37;41.43;;;22.17;;
23416;SDS011;11881;42.432;25.632;2023-12-22T12:26:05;40.47;;;22.40;;
23416;SDS011;11881;42.432;25.632;2023-12-22T12:28:32;39.40;;;23.57;;
23416;SDS011;11881;42.432;25.632;2023-12-22T12:31:05;36.23;;;21.67;;
23416;SDS011;11881;42.432;25.632;2023-12-22T12:33:31;43.10;;;22.30;;
23416;SDS011;11881;42.432;25.632;2023-12-22T12:36:00;40.97;;;22.37;;
23416;SDS011;11881;42.432;25.632;2023-12-22T12:41:12;38.60;;;22.97;;
23416;SDS011;11881;42.432;25.632;2023-12-22T12:43:41;38.00;;;22.33;;
23416;SDS011;11881;42.432;25.632;2023-12-22T12:46:08;39.63;;;23.17;;
23416;SDS011;11881;42.432;25.632;2023-12-22T12:48:34;44.87;;;23.90;;
23416;SDS011;11881;42.432;25.632;2023-12-22T12:51:03;48.73;;;25.43;;
23416;SDS011;11881;42.432;25.632;2023-12-22T12:53:33;43.93;;;24.80;;
23416;SDS011;11881;42.432;25.632;2023-12-22T12:56:01;47.10;;;25.60;;
23416;SDS011;11881;42.432;25.632;2023-12-22T12:58:29;47.40;;;25.63;;
23416;SDS011;11881;42.432;25.632;2023-12-22T13:01:08;49.40;;;26.33;;
23416;SDS011;11881;42.432;25.632;2023-12-22T13:03:53;51.37;;;25.70;;
23416;SDS011;11881;42.432;25.632;2023-12-22T13:06:19;50.40;;;25.23;;
23416;SDS011;11881;42.432;25.632;2023-12-22T13:08:51;62.50;;;27.13;;
23416;SDS011;11881;42.432;25.632;2023-12-22T13:11:27;53.40;;;26.23;;
23416;SDS011;11881;42.432;25.632;2023-12-22T13:13:56;54.30;;;27.10;;
23416;SDS011;11881;42.432;25.632;2023-12-22T13:16:22;52.73;;;25.97;;
23416;SDS011;11881;42.432;25.632;2023-12-22T13:18:54;64.07;;;26.43;;
23416;SDS011;11881;42.432;25.632;2023-12-22T13:21:22;53.43;;;25.97;;
23416;SDS011;11881;42.432;25.632;2023-12-22T13:23:47;42.70;;;24.63;;
23416;SDS011;11881;42.432;25.632;2023-12-22T13:26:19;51.20;;;27.27;;
23416;SDS011;11881;42.432;25.632;2023-12-22T13:28:45;58.53;;;28.60;;
23416;SDS011;11881;42.432;25.632;2023-12-22T13:31:14;48.77;;;27.00;;
23416;SDS011;11881;42.432;25.632;2023-12-22T13:33:43;49.97;;;27.50;;
23416;SDS011;11881;42.432;25.632;2023-12-22T13:36:09;49.43;;;26.00;;
23416;SDS011;11881;42.432;25.632;2023-12-22T13:38:35;54.73;;;25.80;;
23416;SDS011;11881;42.432;25.632;2023-12-22T13:41:01;46.10;;;26.70;;
23416;SDS011;11881;42.432;25.632;2023-12-22T13:43:28;55.50;;;26.33;;
23416;SDS011;11881;42.432;25.632;2023-12-22T13:45:54;57.23;;;28.13;;
23416;SDS011;11881;42.432;25.632;2023-12-22T13:48:20;64.47;;;29.20;;
23416;SDS011;11881;42.432;25.632;2023-12-22T13:51:07;50.13;;;28.73;;
23416;SDS011;11881;42.432;25.632;2023-12-22T13:53:32;60.07;;;28.67;;
23416;SDS011;11881;42.432;25.632;2023-12-22T13:55:59;58.97;;;29.37;;
23416;SDS011;11881;42.432;25.632;2023-12-22T13:58:25;65.53;;;30.10;;
23416;SDS011;11881;42.432;25.632;2023-12-22T14:00:52;54.00;;;27.90;;
23416;SDS011;11881;42.432;25.632;2023-12-22T14:03:18;58.80;;;29.40;;
23416;SDS011;11881;42.432;25.632;2023-12-22T14:05:48;51.73;;;28.27;;
23416;SDS011;11881;42.432;25.632;2023-12-22T14:08:14;56.67;;;28.77;;
23416;SDS011;11881;42.432;25.632;2023-12-22T14:10:44;57.80;;;29.17;;
23416;SDS011;11881;42.432;25.632;2023-12-22T14:13:12;52.60;;;29.10;;
23416;SDS011;11881;42.432;25.632;2023-12-22T14:15:37;50.80;;;28.20;;
23416;SDS011;11881;42.432;25.632;2023-12-22T14:18:03;55.20;;;29.37;;
23416;SDS011;11881;42.432;25.632;2023-12-22T14:20:28;64.73;;;31.40;;
23416;SDS011;11881;42.432;25.632;2023-12-22T14:22:54;64.37;;;32.27;;
23416;SDS011;11881;42.432;25.632;2023-12-22T14:25:19;53.63;;;29.77;;